Etusivu
METAR-TAF:

METAR-TAF

Lentoasemat :

Nouakchottin kansainvälinen lentoasema

Nouakchott, Mauritania

Leveyspiiri: 18-18-36N, Pituuspiiri: 015-58-11W, korkeus merenpinnasta: 3 m

Tämänhetkinen sää

Tämä raportti tehtiin 28 minuuttia sitten, kello 04.00 UTC
Tuuli 10 kn lännestä/luoteesta
Lämpötila 21°C
Kosteus 88%
Ilmanpaine 1013 hPa
Näkyvyys: 8000 m

METAR: GQNO 190400Z 29010KT 8000 NSC 21/19 Q1013 NOSIG

Aika: 04:28 (04:28 UTC)

Sääennuste

Tämä raportti tehtiin 5 tuntia ja 28 minuuttia sitten, kello 23.00 UTC
Ennuste voimassa 19. päivästä klo 00 UTC - 20. päivään klo 06 UTC
Tuuli 14 kn luoteesta
Näkyvyys: 8000 m

TAF: GQNO 182300Z 1900/2006 32014KT 8000 NSC

Säähavainnot ja -ennusteet yli 4000 lentoasemalta (METAR- ja TAF-raportit).

Käytössä olevat sääasemat on merkitty karttaan keltaisilla ja punaisilla pisteillä.

Aseta hiiri pisteen päälle nähdäksesi sääaseman nimen.

Klikkaa sitten nähdäksesi säähavainnot ja -ennusteet.

Kartan vaihtaminen: klikkaa mustalla rastilla varustettuja vihreitä pisteitä, niin voit zoomata sisään; viivalla varustettua vihreää pistettä, niin voit zoomata ulos tai vihreitä nuolia, niin pääset viereisille kartoille.


METAR-TAF: